Time;durP1;ratioP1;P1;durP2;ratioP2;P2;SDS_P1;SDS_P2;PMS_P1;PMS_P2;Temp;Humidity;BMP_temperature;BMP_pressure;BME280_temperature;BME280_humidity;BME280_pressure;Samples;Min_cycle;Max_cycle;Signal;HPM_P1;HPM_P2
2022/04/09 00:01:32;;;;;;;3.80;3.50;;;1.40;99.90;;;;;;6023429;23;20193;-80
2022/04/09 00:03:59;;;;;;;3.58;3.28;;;1.40;99.90;;;;;;6028724;23;20253;-80
2022/04/09 00:06:27;;;;;;;3.38;3.17;;;1.40;99.90;;;;;;6033004;23;20522;-80
2022/04/09 00:08:55;;;;;;;3.20;3.00;;;1.50;99.90;;;;;;6029722;23;20216;-80
2022/04/09 00:11:22;;;;;;;3.75;3.40;;;1.40;99.90;;;;;;6032361;23;20688;-79
2022/04/09 00:13:49;;;;;;;3.45;2.80;;;1.40;99.90;;;;;;6026282;23;20219;-81
2022/04/09 00:16:16;;;;;;;2.40;2.20;;;1.40;99.90;;;;;;6031455;23;20645;-80
2022/04/09 00:18:44;;;;;;;3.00;2.80;;;1.50;99.90;;;;;;6034925;23;20196;-80
2022/04/09 00:21:11;;;;;;;5.20;3.55;;;1.50;99.90;;;;;;6031439;23;20637;-80
2022/04/09 00:23:39;;;;;;;3.33;3.10;;;1.50;99.90;;;;;;6030459;23;20267;-80
2022/04/09 00:26:06;;;;;;;2.85;2.65;;;1.60;99.90;;;;;;6032799;23;20296;-80
2022/04/09 00:28:33;;;;;;;2.17;2.00;;;1.60;99.90;;;;;;6029467;23;20197;-81
2022/04/09 00:31:00;;;;;;;2.70;2.50;;;1.60;99.90;;;;;;6030175;23;20193;-81
2022/04/09 00:33:27;;;;;;;1.77;1.67;;;1.60;99.90;;;;;;6032821;23;20206;-80
2022/04/09 00:35:54;;;;;;;1.75;1.65;;;1.60;99.90;;;;;;6033826;23;20185;-79
2022/04/09 00:38:21;;;;;;;1.50;1.40;;;1.70;99.90;;;;;;6028040;23;20193;-80
2022/04/09 00:40:50;;;;;;;2.83;1.50;;;1.70;99.90;;;;;;6032682;23;20194;-80
2022/04/09 00:43:17;;;;;;;1.80;1.70;;;1.70;99.90;;;;;;6029462;23;20300;-80
2022/04/09 00:45:47;;;;;;;2.05;1.95;;;1.70;99.90;;;;;;6019710;23;20646;-79
2022/04/09 00:48:14;;;;;;;2.10;2.00;;;1.60;99.90;;;;;;6026478;23;20221;-80
2022/04/09 00:50:41;;;;;;;2.65;2.50;;;1.60;99.90;;;;;;6034337;23;20190;-81
2022/04/09 00:53:09;;;;;;;2.33;2.22;;;1.60;99.90;;;;;;6030973;23;20627;-81
2022/04/09 00:58:25;;;;;;;2.95;2.75;;;1.60;99.90;;;;;;6031354;23;20193;-81
2022/04/09 01:00:52;;;;;;;2.90;2.70;;;1.60;99.90;;;;;;6030656;23;20235;-81
2022/04/09 01:03:20;;;;;;;2.83;2.63;;;1.60;99.90;;;;;;6032480;23;20223;-81
2022/04/09 01:05:48;;;;;;;2.83;2.63;;;1.60;99.90;;;;;;6031424;23;20186;-81
2022/04/09 01:08:16;;;;;;;3.63;3.35;;;1.50;99.90;;;;;;6019281;23;20206;-80
2022/04/09 01:10:46;;;;;;;3.15;2.95;;;1.50;99.90;;;;;;6025413;23;20217;-81
2022/04/09 01:13:15;;;;;;;3.35;3.10;;;1.50;99.90;;;;;;6019267;23;20661;-82
2022/04/09 01:15:43;;;;;;;3.70;3.40;;;1.60;99.90;;;;;;6014173;23;20221;-81
2022/04/09 01:18:10;;;;;;;3.85;3.55;;;1.50;99.90;;;;;;6028494;23;20224;-80
2022/04/09 01:20:38;;;;;;;4.15;3.85;;;1.50;99.90;;;;;;6022639;23;20269;-81
2022/04/09 01:23:06;;;;;;;3.42;3.22;;;1.60;99.90;;;;;;6031966;23;20704;-81
2022/04/09 01:25:33;;;;;;;3.92;3.63;;;1.60;99.90;;;;;;6020401;23;20182;-80
2022/04/09 01:28:00;;;;;;;4.20;3.90;;;1.60;99.90;;;;;;6031420;23;20197;-81
2022/04/09 01:30:27;;;;;;;3.95;3.65;;;1.60;99.90;;;;;;6023874;23;20200;-80
2022/04/09 01:32:54;;;;;;;3.80;3.50;;;1.60;99.90;;;;;;6028174;23;20569;-81
2022/04/09 01:35:21;;;;;;;4.95;3.78;;;1.60;99.90;;;;;;6031200;23;20545;-80
2022/04/09 01:37:48;;;;;;;4.10;3.80;;;1.60;99.90;;;;;;6033026;23;20193;-81
2022/04/09 01:40:17;;;;;;;4.97;4.57;;;1.50;99.90;;;;;;6029241;23;20194;-81
2022/04/09 01:42:44;;;;;;;5.25;4.80;;;1.50;99.90;;;;;;6022945;23;20232;-80
2022/04/09 01:45:11;;;;;;;4.50;4.20;;;1.50;99.90;;;;;;6012494;23;20194;-80
2022/04/09 01:47:41;;;;;;;4.32;4.03;;;1.60;99.90;;;;;;6010956;23;20189;-81
2022/04/09 01:50:10;;;;;;;4.68;4.30;;;1.60;99.90;;;;;;6032727;23;20240;-80
2022/04/09 01:52:37;;;;;;;4.55;4.25;;;1.60;99.90;;;;;;6031770;23;20541;-80
2022/04/09 01:55:05;;;;;;;4.20;3.90;;;1.70;99.90;;;;;;6025374;23;20205;-80
2022/04/09 01:57:34;;;;;;;3.70;3.40;;;1.70;99.90;;;;;;6031003;23;20229;-80
2022/04/09 02:00:01;;;;;;;3.17;2.97;;;1.70;99.90;;;;;;6019402;23;20201;-81
2022/04/09 02:02:28;;;;;;;3.47;3.17;;;1.70;99.90;;;;;;5991002;23;20189;-80
2022/04/09 02:04:55;;;;;;;3.40;3.20;;;1.70;99.90;;;;;;6030299;23;20231;-80
2022/04/09 02:07:22;;;;;;;3.40;3.10;;;1.70;99.90;;;;;;6028539;23;20256;-80
2022/04/09 02:09:50;;;;;;;3.83;3.53;;;1.80;99.90;;;;;;6024031;23;20221;-80
2022/04/09 02:12:17;;;;;;;5.50;4.00;;;1.80;99.90;;;;;;6029739;23;20211;-80
2022/04/09 02:14:45;;;;;;;4.97;4.57;;;1.70;99.90;;;;;;6031920;23;20213;-81
2022/04/09 02:17:12;;;;;;;4.38;4.07;;;1.70;99.90;;;;;;6030874;23;20244;-81
2022/04/09 02:19:39;;;;;;;5.10;4.70;;;1.80;99.90;;;;;;6031803;23;20744;-80
2022/04/09 02:22:06;;;;;;;4.63;4.22;;;1.70;99.90;;;;;;6033359;23;20198;-80
2022/04/09 02:24:33;;;;;;;5.00;4.57;;;1.80;99.90;;;;;;6026235;23;20225;-80
2022/04/09 02:27:00;;;;;;;4.75;4.35;;;1.70;99.90;;;;;;6031385;23;20204;-81
2022/04/09 02:29:27;;;;;;;5.22;4.80;;;1.80;99.90;;;;;;6025340;23;20225;-80
2022/04/09 02:31:56;;;;;;;4.88;4.47;;;1.80;99.90;;;;;;6029799;23;20190;-80
2022/04/09 02:34:24;;;;;;;5.13;4.72;;;1.80;99.90;;;;;;6031792;23;20213;-80
2022/04/09 02:36:51;;;;;;;6.38;4.90;;;1.70;99.90;;;;;;6032030;23;20277;-80
2022/04/09 02:39:21;;;;;;;5.97;5.47;;;1.70;99.90;;;;;;6032974;23;20269;-81
2022/04/09 02:41:50;;;;;;;6.50;5.90;;;1.70;99.90;;;;;;6029545;23;20190;-81
2022/04/09 02:44:17;;;;;;;6.47;5.88;;;1.70;99.90;;;;;;6024746;23;20222;-80
2022/04/09 02:46:44;;;;;;;6.47;5.80;;;1.70;99.90;;;;;;6012162;23;20618;-80
2022/04/09 02:49:13;;;;;;;6.40;5.85;;;1.70;99.90;;;;;;6019359;23;20268;-80
2022/04/09 02:51:40;;;;;;;7.75;7.05;;;1.70;99.90;;;;;;6019684;23;20284;-80
2022/04/09 02:54:09;;;;;;;7.55;6.85;;;1.70;99.90;;;;;;6032771;23;20213;-79
2022/04/09 02:56:36;;;;;;;6.22;5.63;;;1.80;99.90;;;;;;6033360;23;20225;-81
2022/04/09 02:59:02;;;;;;;6.82;6.22;;;1.80;99.90;;;;;;6026640;23;20201;-80
2022/04/09 03:01:31;;;;;;;6.40;5.80;;;1.80;99.90;;;;;;6013054;23;20197;-80
2022/04/09 03:03:58;;;;;;;6.43;5.85;;;1.80;99.90;;;;;;6025145;23;20300;-80
2022/04/09 03:06:26;;;;;;;6.07;5.53;;;1.90;99.90;;;;;;6019957;23;20194;-80
2022/04/09 03:08:53;;;;;;;6.18;5.57;;;1.80;99.90;;;;;;6008576;23;20225;-81
2022/04/09 03:11:20;;;;;;;6.60;6.00;;;1.90;99.90;;;;;;6031167;23;20217;-80
2022/04/09 03:13:47;;;;;;;5.10;4.70;;;1.90;99.90;;;;;;6031854;23;20225;-80
2022/04/09 03:16:14;;;;;;;5.50;5.00;;;1.90;99.90;;;;;;6030130;23;20653;-80
2022/04/09 03:18:41;;;;;;;5.82;5.30;;;1.90;99.90;;;;;;6033736;23;20276;-80
2022/04/09 03:21:08;;;;;;;4.90;4.50;;;1.90;99.90;;;;;;6029796;23;20217;-80
2022/04/09 03:23:36;;;;;;;4.97;4.63;;;1.90;99.90;;;;;;6029262;23;20608;-80
2022/04/09 03:26:05;;;;;;;5.68;4.88;;;1.90;99.90;;;;;;6010987;23;20233;-80
2022/04/09 03:28:32;;;;;;;5.43;4.93;;;1.90;99.90;;;;;;6023078;23;20260;-80
2022/04/09 03:30:59;;;;;;;5.22;4.75;;;1.90;99.90;;;;;;6029050;23;20201;-80
2022/04/09 03:33:26;;;;;;;4.95;4.55;;;1.90;99.90;;;;;;6027896;23;20489;-80
2022/04/09 03:35:55;;;;;;;5.57;5.07;;;2.00;99.90;;;;;;6028950;23;20198;-80
2022/04/09 03:38:22;;;;;;;5.78;5.28;;;1.90;99.90;;;;;;6023056;23;20189;-80
2022/04/09 03:40:51;;;;;;;6.35;5.57;;;2.00;99.90;;;;;;6048443;23;20244;-81
2022/04/09 03:43:17;;;;;;;6.00;5.43;;;2.10;99.90;;;;;;6060601;23;20692;-81
2022/04/09 03:45:44;;;;;;;6.85;6.20;;;2.10;99.90;;;;;;6056200;23;20684;-81
2022/04/09 03:48:11;;;;;;;7.82;7.13;;;2.20;99.90;;;;;;6058926;23;20201;-81
2022/04/09 03:50:38;;;;;;;7.18;6.47;;;2.20;99.90;;;;;;6059522;23;20275;-78
2022/04/09 03:53:05;;;;;;;7.80;7.10;;;2.30;99.90;;;;;;6049324;23;20212;-78
2022/04/09 03:55:32;;;;;;;8.85;7.97;;;2.30;99.90;;;;;;6059091;23;20272;-80
2022/04/09 03:58:00;;;;;;;8.63;7.82;;;2.30;99.90;;;;;;6051113;23;20196;-78
2022/04/09 04:00:27;;;;;;;8.57;7.78;;;2.30;99.90;;;;;;6050018;23;20540;-78
2022/04/09 04:02:57;;;;;;;9.00;8.13;;;2.30;99.90;;;;;;6062311;23;20211;-81
2022/04/09 04:05:23;;;;;;;9.32;8.32;;;2.30;99.90;;;;;;6047965;23;20209;-80
2022/04/09 04:07:51;;;;;;;9.18;8.27;;;2.30;99.90;;;;;;6053269;23;20189;-78
2022/04/09 04:10:18;;;;;;;8.75;7.95;;;2.30;99.90;;;;;;6050372;23;20220;-79
2022/04/09 04:12:45;;;;;;;8.77;7.88;;;2.30;99.90;;;;;;6051750;23;20244;-78
2022/04/09 04:15:15;;;;;;;9.55;8.55;;;2.30;99.90;;;;;;6052267;23;20272;-79
2022/04/09 04:17:43;;;;;;;10.48;9.48;;;2.30;99.90;;;;;;6058060;23;20191;-78
2022/04/09 04:20:11;;;;;;;10.90;9.20;;;2.20;99.90;;;;;;6058664;23;20193;-79
2022/04/09 04:22:38;;;;;;;11.55;10.35;;;2.20;99.90;;;;;;6058276;23;20216;-78
2022/04/09 04:25:06;;;;;;;11.95;9.35;;;2.10;99.90;;;;;;6049671;23;20221;-79
2022/04/09 04:27:33;;;;;;;10.85;9.50;;;2.10;99.90;;;;;;6060431;23;20251;-79
2022/04/09 04:30:00;;;;;;;11.80;9.88;;;2.10;99.90;;;;;;6058456;23;20197;-79
2022/04/09 04:32:28;;;;;;;11.70;10.60;;;2.10;99.90;;;;;;6057416;23;20280;-79
2022/04/09 04:34:55;;;;;;;11.52;10.32;;;2.10;99.90;;;;;;6050821;23;20193;-79
2022/04/09 04:37:22;;;;;;;12.25;9.82;;;2.00;99.90;;;;;;6042830;23;20199;-80
2022/04/09 04:39:49;;;;;;;12.57;10.23;;;2.00;99.90;;;;;;6050620;23;20272;-79
2022/04/09 04:42:16;;;;;;;14.57;11.18;;;2.00;99.90;;;;;;6056155;23;20591;-79
2022/04/09 04:44:43;;;;;;;13.60;11.20;;;2.00;99.90;;;;;;6037409;23;20932;-80
2022/04/09 04:47:10;;;;;;;11.85;10.65;;;2.00;99.90;;;;;;6054790;23;20201;-80
2022/04/09 04:49:38;;;;;;;12.88;11.50;;;2.00;99.90;;;;;;6056223;23;20193;-79
2022/04/09 04:52:06;;;;;;;13.95;11.85;;;2.00;99.90;;;;;;6057195;23;20236;-80
2022/04/09 04:54:33;;;;;;;13.75;11.95;;;2.00;99.90;;;;;;6044870;23;20194;-79
2022/04/09 04:57:00;;;;;;;14.63;12.70;;;2.00;99.90;;;;;;6053971;23;20826;-79
2022/04/09 04:59:27;;;;;;;13.50;12.10;;;2.00;99.90;;;;;;6054254;23;20347;-79
2022/04/09 05:01:54;;;;;;;15.23;13.40;;;2.00;99.90;;;;;;6058927;23;20260;-79
2022/04/09 05:04:21;;;;;;;13.77;12.30;;;2.10;99.90;;;;;;6051850;23;20249;-79
2022/04/09 05:06:50;;;;;;;13.43;12.02;;;2.10;99.90;;;;;;6059622;23;20213;-80
2022/04/09 05:09:17;;;;;;;16.73;12.18;;;2.10;99.90;;;;;;6057502;23;20231;-79
2022/04/09 05:11:44;;;;;;;16.67;13.15;;;2.10;99.90;;;;;;6059154;23;20231;-79
2022/04/09 05:14:12;;;;;;;13.18;11.57;;;2.10;99.90;;;;;;6059534;23;20229;-79
2022/04/09 05:16:39;;;;;;;14.90;12.82;;;2.10;99.90;;;;;;6060343;23;20195;-79
2022/04/09 05:19:06;;;;;;;13.80;12.40;;;2.20;99.90;;;;;;6055373;23;20731;-79
2022/04/09 05:21:33;;;;;;;14.30;12.80;;;2.20;99.90;;;;;;6057280;23;20189;-79
2022/04/09 05:24:02;;;;;;;13.63;12.32;;;2.20;99.90;;;;;;6054612;23;20606;-79
2022/04/09 05:26:28;;;;;;;14.20;12.80;;;2.20;99.90;;;;;;6059553;23;20189;-79
2022/04/09 05:28:55;;;;;;;13.93;12.30;;;2.20;99.90;;;;;;6058154;23;20193;-79
2022/04/09 05:31:27;;;;;;;13.95;12.43;;;2.20;99.90;;;;;;6058075;23;20216;-79
2022/04/09 05:33:54;;;;;;;14.60;13.10;;;2.30;99.90;;;;;;6057226;23;20622;-78
2022/04/09 05:36:21;;;;;;;14.35;12.95;;;2.40;99.90;;;;;;6056799;23;20205;-79
2022/04/09 05:38:49;;;;;;;14.90;12.55;;;2.50;99.90;;;;;;6055931;23;20604;-79
2022/04/09 05:41:17;;;;;;;16.35;13.55;;;2.50;99.90;;;;;;6052882;23;20195;-80
2022/04/09 05:43:44;;;;;;;15.52;13.10;;;2.50;99.90;;;;;;6059080;23;20642;-83
2022/04/09 05:46:11;;;;;;;15.35;13.68;;;2.60;99.90;;;;;;6058308;23;20228;-80
2022/04/09 05:48:38;;;;;;;15.60;13.98;;;2.60;99.90;;;;;;6044479;23;20702;-80
2022/04/09 05:51:06;;;;;;;13.77;12.55;;;2.60;99.90;;;;;;6052824;23;20191;-80
2022/04/09 05:53:33;;;;;;;15.60;13.93;;;2.60;99.90;;;;;;6057127;23;20303;-80
2022/04/09 05:56:00;;;;;;;15.50;14.00;;;2.60;99.90;;;;;;6050752;23;20191;-80
2022/04/09 05:58:28;;;;;;;15.50;14.10;;;2.60;99.90;;;;;;6049468;23;20213;-80
2022/04/09 06:00:55;;;;;;;17.08;15.30;;;2.70;99.90;;;;;;6050483;23;20625;-80
2022/04/09 06:03:23;;;;;;;15.77;13.90;;;2.70;99.90;;;;;;6059291;23;20292;-80
2022/04/09 06:05:49;;;;;;;13.57;12.38;;;2.70;99.90;;;;;;6056885;23;20213;-80
2022/04/09 06:08:16;;;;;;;14.27;12.75;;;2.80;99.90;;;;;;6049076;23;20587;-79
2022/04/09 06:10:44;;;;;;;15.65;12.57;;;2.80;99.90;;;;;;6057826;23;20189;-80
2022/04/09 06:13:13;;;;;;;14.70;13.30;;;2.90;99.90;;;;;;6060761;23;20638;-79
2022/04/09 06:15:42;;;;;;;13.63;12.43;;;3.00;99.90;;;;;;6053606;23;20193;-80
2022/04/09 06:18:10;;;;;;;13.77;12.38;;;3.10;99.90;;;;;;6060037;23;20189;-79
2022/04/09 06:20:37;;;;;;;12.25;11.15;;;3.10;99.90;;;;;;6053228;23;20189;-79
2022/04/09 06:23:05;;;;;;;13.90;12.57;;;3.20;99.90;;;;;;6061477;23;20792;-80
2022/04/09 06:25:32;;;;;;;13.43;12.23;;;3.30;99.90;;;;;;6057985;23;20279;-79
2022/04/09 06:27:58;;;;;;;13.27;11.98;;;3.50;99.90;;;;;;6056596;23;20182;-79
2022/04/09 06:30:26;;;;;;;12.38;11.27;;;3.60;99.90;;;;;;6057105;23;20186;-79
2022/04/09 06:32:54;;;;;;;13.75;12.45;;;3.80;99.90;;;;;;6057073;23;20209;-81
2022/04/09 06:35:21;;;;;;;9.15;8.23;;;3.90;99.90;;;;;;6061249;23;20242;-79
2022/04/09 06:37:48;;;;;;;10.82;9.82;;;4.10;99.90;;;;;;6060923;23;20278;-78
2022/04/09 06:40:16;;;;;;;10.50;9.60;;;4.30;99.90;;;;;;6056719;23;20577;-79
2022/04/09 06:42:43;;;;;;;11.43;10.27;;;4.50;99.90;;;;;;6045799;23;20223;-79
2022/04/09 06:45:11;;;;;;;10.88;9.85;;;4.80;99.90;;;;;;6045359;23;20216;-79
2022/04/09 06:47:39;;;;;;;9.50;8.60;;;5.00;99.90;;;;;;6051565;23;20263;-79
2022/04/09 06:50:13;;;;;;;9.70;8.70;;;5.40;99.90;;;;;;6060206;23;20254;-79
2022/04/09 06:52:41;;;;;;;8.85;8.10;;;5.60;99.90;;;;;;6051993;23;20210;-81
2022/04/09 06:55:10;;;;;;;7.00;6.40;;;6.00;99.90;;;;;;6060305;23;20197;-81
2022/04/09 06:57:38;;;;;;;7.93;6.78;;;6.90;99.90;;;;;;6062281;23;20192;-81
2022/04/09 07:00:08;;;;;;;7.55;6.85;;;7.80;99.90;;;;;;6057707;23;20268;-78
2022/04/09 07:02:35;;;;;;;8.15;7.35;;;8.40;99.90;;;;;;6056832;23;20771;-79
2022/04/09 07:05:02;;;;;;;8.60;7.80;;;8.40;99.90;;;;;;6055831;23;20244;-79
2022/04/09 07:07:31;;;;;;;7.65;6.90;;;8.70;99.90;;;;;;6053213;23;20637;-79
2022/04/09 07:10:04;;;;;;;7.40;6.82;;;9.10;99.90;;;;;;6062612;23;20253;-78
2022/04/09 07:12:31;;;;;;;8.48;6.70;;;9.40;99.90;;;;;;6055305;23;20215;-78
2022/04/09 07:14:58;;;;;;;6.90;6.00;;;9.70;99.90;;;;;;6048839;23;20193;-81
2022/04/09 07:17:26;;;;;;;6.85;6.30;;;9.40;99.90;;;;;;6046358;23;20596;-79
2022/04/09 07:19:57;;;;;;;7.47;6.28;;;9.40;99.90;;;;;;6055182;23;20246;-80
2022/04/09 07:22:24;;;;;;;6.55;5.95;;;9.00;99.90;;;;;;6047976;23;20300;-78
2022/04/09 07:24:53;;;;;;;7.05;6.40;;;8.50;99.90;;;;;;6054288;23;20217;-81
2022/04/09 07:27:20;;;;;;;7.45;6.75;;;8.40;99.90;;;;;;6057947;23;20181;-80
2022/04/09 07:29:48;;;;;;;7.82;6.95;;;8.60;99.90;;;;;;6046174;23;20181;-81
2022/04/09 07:32:15;;;;;;;8.38;7.60;;;8.80;99.90;;;;;;6056483;23;20209;-82
2022/04/09 07:34:43;;;;;;;7.25;6.35;;;8.90;99.90;;;;;;6051769;23;20197;-80
2022/04/09 07:37:10;;;;;;;6.85;6.25;;;9.00;99.90;;;;;;6049399;23;20185;-80
2022/04/09 07:39:38;;;;;;;6.28;5.78;;;8.70;99.90;;;;;;6055589;23;20188;-80
2022/04/09 07:42:07;;;;;;;6.60;6.10;;;8.80;99.90;;;;;;6054060;23;20326;-80
2022/04/09 07:44:34;;;;;;;5.82;5.25;;;8.80;99.90;;;;;;6053057;23;20296;-81
2022/04/09 07:47:01;;;;;;;5.90;5.38;;;8.90;99.90;;;;;;6043518;23;20217;-80
2022/04/09 07:49:28;;;;;;;6.72;6.07;;;8.70;99.90;;;;;;6053314;23;20192;-80
2022/04/09 07:51:55;;;;;;;6.47;5.88;;;8.30;99.90;;;;;;6046161;23;20208;-80
2022/04/09 07:54:24;;;;;;;8.38;5.70;;;7.80;99.90;;;;;;6056842;23;20185;-80
2022/04/09 07:56:51;;;;;;;6.10;5.60;;;7.30;99.90;;;;;;6049747;23;20252;-79
2022/04/09 07:59:19;;;;;;;6.53;5.95;;;7.10;99.90;;;;;;6051611;23;20192;-80
2022/04/09 08:01:46;;;;;;;7.78;6.38;;;7.10;99.90;;;;;;6056871;23;20276;-80
2022/04/09 08:04:13;;;;;;;6.32;5.70;;;7.00;99.90;;;;;;6055795;23;20184;-81
2022/04/09 08:06:40;;;;;;;8.25;6.30;;;7.20;99.90;;;;;;6061921;23;20209;-86
2022/04/09 08:09:07;;;;;;;9.18;5.55;;;7.20;99.90;;;;;;6071012;23;20246;-81
2022/04/09 08:11:34;;;;;;;6.85;5.60;;;7.00;99.90;;;;;;6063852;23;20212;-82
2022/04/09 08:14:01;;;;;;;7.13;6.03;;;6.80;99.90;;;;;;6048626;23;20573;-78
2022/04/09 08:16:30;;;;;;;5.50;5.00;;;6.70;99.90;;;;;;6056276;23;20220;-78
2022/04/09 08:18:57;;;;;;;6.20;5.55;;;6.60;99.90;;;;;;6056858;23;20213;-78
2022/04/09 08:21:24;;;;;;;6.25;5.65;;;6.40;99.90;;;;;;6059423;23;20288;-77
2022/04/09 08:23:51;;;;;;;6.97;6.32;;;6.30;99.90;;;;;;6057197;23;20188;-77
2022/04/09 08:26:18;;;;;;;7.35;6.68;;;6.10;99.90;;;;;;6043324;23;20307;-78
2022/04/09 08:28:45;;;;;;;8.30;6.38;;;6.10;99.90;;;;;;6054730;23;20181;-78
2022/04/09 08:31:12;;;;;;;7.20;5.90;;;6.50;99.90;;;;;;6047557;23;20205;-78
2022/04/09 08:33:42;;;;;;;7.03;6.13;;;7.00;99.90;;;;;;6057109;23;20203;-77
2022/04/09 08:36:09;;;;;;;5.97;5.35;;;7.30;99.90;;;;;;6039486;23;20189;-81
2022/04/09 08:38:36;;;;;;;6.10;5.35;;;7.90;99.90;;;;;;6059672;23;20185;-76
2022/04/09 08:41:03;;;;;;;5.90;5.22;;;8.90;99.90;;;;;;6051402;23;20663;-76
2022/04/09 08:43:31;;;;;;;6.40;5.40;;;9.40;99.90;;;;;;6052940;23;20189;-76
2022/04/09 08:46:00;;;;;;;8.90;5.60;;;9.60;99.90;;;;;;6054611;23;20283;-76
2022/04/09 08:48:28;;;;;;;7.07;5.35;;;9.80;99.90;;;;;;6059728;23;20189;-76
2022/04/09 08:50:57;;;;;;;7.40;5.85;;;9.60;99.90;;;;;;6053617;23;20185;-74
2022/04/09 08:53:24;;;;;;;6.63;5.80;;;8.40;99.90;;;;;;6056507;23;20280;-75
2022/04/09 08:55:53;;;;;;;8.45;5.80;;;7.40;99.90;;;;;;6059268;23;20209;-75
2022/04/09 08:58:20;;;;;;;7.57;5.80;;;7.00;99.90;;;;;;6052610;23;20225;-75
2022/04/09 09:00:48;;;;;;;5.75;5.25;;;7.10;99.90;;;;;;6054588;23;20185;-74
2022/04/09 09:03:15;;;;;;;6.47;5.53;;;7.20;99.90;;;;;;6058862;23;20185;-74
2022/04/09 09:05:45;;;;;;;7.35;5.63;;;7.50;99.90;;;;;;6055613;23;20208;-73
2022/04/09 09:08:14;;;;;;;8.98;5.30;;;7.60;99.90;;;;;;6047691;23;20243;-75
2022/04/09 09:10:42;;;;;;;6.50;5.30;;;7.10;99.90;;;;;;6055906;23;20186;-73
2022/04/09 09:13:11;;;;;;;6.15;5.55;;;7.00;99.90;;;;;;6056711;23;20189;-73
2022/04/09 09:15:48;;;;;;;7.05;5.10;;;7.30;99.90;;;;;;6055872;23;20199;-73
2022/04/09 09:18:20;;;;;;;5.00;4.47;;;7.70;99.90;;;;;;6047676;23;20181;-73
2022/04/09 09:20:51;;;;;;;5.45;4.00;;;8.40;99.90;;;;;;6053070;23;20185;-72
2022/04/09 09:23:27;;;;;;;6.10;4.90;;;8.70;99.90;;;;;;6057115;23;21405;-74
2022/04/09 09:25:56;;;;;;;6.60;3.95;;;9.30;99.90;;;;;;6042357;23;20573;-76
2022/04/09 09:28:25;;;;;;;7.20;4.30;;;10.00;99.90;;;;;;6050343;23;20188;-75
2022/04/09 09:30:52;;;;;;;5.00;4.30;;;10.20;99.90;;;;;;6050840;23;20191;-75
2022/04/09 09:33:20;;;;;;;4.88;4.05;;;9.80;99.90;;;;;;6053849;23;20185;-75
2022/04/09 09:35:51;;;;;;;8.35;4.25;;;9.50;99.90;;;;;;6054319;23;20273;-75
2022/04/09 09:38:19;;;;;;;7.28;4.07;;;9.60;99.90;;;;;;6058385;23;20216;-75
2022/04/09 09:40:48;;;;;;;5.30;4.45;;;9.60;99.90;;;;;;6053366;23;20197;-77
2022/04/09 09:43:16;;;;;;;5.18;4.00;;;9.90;99.90;;;;;;6045871;23;20206;-73
2022/04/09 09:45:43;;;;;;;4.63;3.95;;;10.40;99.90;;;;;;6034498;23;20218;-72
2022/04/09 09:48:24;;;;;;;5.45;3.70;;;10.90;99.90;;;;;;6028380;23;20188;-73
2022/04/09 09:50:53;;;;;;;5.25;3.45;;;11.40;99.90;;;;;;6029640;23;20207;-73
2022/04/09 09:53:28;;;;;;;4.78;3.20;;;12.20;99.90;;;;;;6029777;23;20192;-72
2022/04/09 09:55:56;;;;;;;4.85;3.05;;;12.20;99.90;;;;;;6027831;23;20658;-72
2022/04/09 09:58:24;;;;;;;5.20;3.20;;;11.50;99.90;;;;;;6028620;23;20292;-73
2022/04/09 10:00:51;;;;;;;5.97;3.95;;;11.00;99.90;;;;;;6029354;23;20210;-73
2022/04/09 10:03:20;;;;;;;4.85;3.10;;;10.40;99.90;;;;;;6025681;23;20211;-73
2022/04/09 10:05:48;;;;;;;5.07;2.90;;;10.50;99.90;;;;;;6025674;23;20237;-75
2022/04/09 10:08:16;;;;;;;4.20;3.47;;;10.00;99.90;;;;;;6029142;23;20275;-74
2022/04/09 10:10:48;;;;;;;5.18;3.15;;;9.00;99.90;;;;;;6026786;23;20213;-73
2022/04/09 10:13:20;;;;;;;5.35;3.60;;;8.50;99.90;;;;;;6022651;23;20268;-71
2022/04/09 10:15:50;;;;;;;5.53;3.63;;;8.80;99.90;;;;;;6029628;23;20187;-87
2022/04/09 10:18:23;;;;;;;4.70;3.30;;;9.10;99.90;;;;;;6034018;23;20190;-86
2022/04/09 10:20:56;;;;;;;5.07;3.33;;;8.90;99.90;;;;;;6012069;23;20207;-89
2022/04/09 10:23:24;;;;;;;6.20;3.33;;;9.00;99.90;;;;;;6014400;23;20207;-86
2022/04/09 10:25:52;;;;;;;4.78;2.95;;;10.00;99.90;;;;;;6032261;23;20549;-88
2022/04/09 10:28:36;;;;;;;5.97;3.10;;;11.10;99.90;;;;;;6032401;23;20196;-90
2022/04/09 10:31:34;;;;;;;4.15;2.97;;;12.20;99.90;;;;;;6023930;23;20264;-82
2022/04/09 10:34:02;;;;;;;7.72;3.55;;;11.00;99.90;;;;;;6023956;23;20195;-82
2022/04/09 10:37:02;;;;;;;4.22;3.00;;;10.00;99.90;;;;;;6050020;23;20282;-81
2022/04/09 10:39:36;;;;;;;5.70;3.03;;;10.40;99.90;;;;;;6025650;23;20196;-82
2022/04/09 10:42:04;;;;;;;4.35;3.08;;;10.40;99.90;;;;;;6030005;23;20289;-82
2022/04/09 10:44:36;;;;;;;5.05;2.80;;;10.60;99.90;;;;;;6024802;23;20190;-81
2022/04/09 10:47:05;;;;;;;3.80;2.80;;;10.30;99.90;;;;;;6030864;23;20225;-81
2022/04/09 10:49:32;;;;;;;3.00;2.70;;;10.40;99.90;;;;;;6036473;23;20187;-82
2022/04/09 10:52:15;;;;;;;6.28;3.08;;;9.90;99.90;;;;;;6038171;23;20282;-82
2022/04/09 10:54:59;;;;;;;5.32;3.88;;;9.50;99.90;;;;;;6028597;23;20225;-83
2022/04/09 10:57:26;;;;;;;4.93;3.95;;;9.00;99.90;;;;;;6027382;23;20274;-82
2022/04/09 10:59:59;;;;;;;5.18;3.80;;;8.70;99.90;;;;;;6029222;23;20189;-82
2022/04/09 11:02:31;;;;;;;4.22;3.67;;;8.40;99.90;;;;;;6030419;23;20189;-81
2022/04/09 11:05:23;;;;;;;4.65;3.90;;;8.70;99.90;;;;;;6032642;23;20211;-82
2022/04/09 11:08:06;;;;;;;6.07;3.65;;;9.70;99.90;;;;;;6031801;23;20247;-82
2022/04/09 11:10:34;;;;;;;5.30;3.60;;;11.20;99.90;;;;;;6011123;23;20216;-81
2022/04/09 11:13:01;;;;;;;5.68;3.00;;;11.70;99.90;;;;;;6024935;23;20193;-81
2022/04/09 11:15:29;;;;;;;4.25;3.20;;;11.70;99.90;;;;;;6025246;23;20193;-81
2022/04/09 11:18:01;;;;;;;5.90;3.40;;;11.40;99.90;;;;;;6030096;23;20192;-81
2022/04/09 11:20:33;;;;;;;4.63;3.28;;;11.70;99.90;;;;;;6030901;23;20215;-81
2022/04/09 11:23:10;;;;;;;4.13;2.90;;;11.80;99.00;;;;;;6023368;23;20190;-80
2022/04/09 11:25:40;;;;;;;5.75;3.35;;;11.10;99.90;;;;;;6032298;23;20272;-81
2022/04/09 11:28:10;;;;;;;3.95;2.65;;;11.80;99.90;;;;;;6031686;23;20747;-85
2022/04/09 11:30:37;;;;;;;7.88;3.20;;;12.50;99.50;;;;;;6030688;23;20217;-82
2022/04/09 11:33:04;;;;;;;5.60;3.00;;;12.90;99.50;;;;;;6030347;23;20665;-88
2022/04/09 11:35:35;;;;;;;4.35;2.95;;;12.90;98.50;;;;;;6031034;23;20185;-81
2022/04/09 11:38:02;;;;;;;5.45;3.00;;;11.90;97.60;;;;;;6031119;23;20517;-81
2022/04/09 11:40:29;;;;;;;5.05;3.67;;;11.60;98.70;;;;;;6033046;23;20229;-81
2022/04/09 11:42:57;;;;;;;4.43;2.80;;;11.70;99.60;;;;;;6018513;23;20208;-85
2022/04/09 11:45:26;;;;;;;3.15;2.88;;;12.50;99.20;;;;;;6028055;23;20193;-82
2022/04/09 11:47:57;;;;;;;5.35;2.92;;;12.80;97.60;;;;;;6025211;23;20237;-82
2022/04/09 11:50:26;;;;;;;3.55;2.70;;;13.20;96.40;;;;;;6017303;23;20252;-81
2022/04/09 11:52:54;;;;;;;3.67;2.72;;;13.80;97.50;;;;;;6029462;23;20201;-83
2022/04/09 11:55:21;;;;;;;4.00;2.50;;;14.30;94.70;;;;;;6034060;23;20212;-82
2022/04/09 11:57:49;;;;;;;3.50;2.70;;;13.30;94.10;;;;;;6033982;23;20255;-82
2022/04/09 12:00:17;;;;;;;6.75;2.90;;;13.10;95.30;;;;;;6033227;23;20692;-82
2022/04/09 12:02:44;;;;;;;2.58;2.38;;;13.20;95.70;;;;;;6034581;23;20196;-82
2022/04/09 12:05:12;;;;;;;3.35;2.40;;;13.80;95.80;;;;;;6033288;23;20189;-82
2022/04/09 12:07:41;;;;;;;3.80;2.58;;;14.40;93.30;;;;;;6020551;23;20222;-83
2022/04/09 12:10:23;;;;;;;4.47;2.25;;;14.10;92.80;;;;;;6033465;23;20205;-82
2022/04/09 12:12:56;;;;;;;4.90;2.58;;;13.70;93.30;;;;;;6033600;23;20185;-82
2022/04/09 12:15:29;;;;;;;3.58;2.35;;;13.50;92.10;;;;;;6029413;23;20541;-82
2022/04/09 12:17:56;;;;;;;5.13;2.30;;;13.80;91.90;;;;;;6017408;23;20277;-82
2022/04/09 12:20:30;;;;;;;5.13;2.60;;;13.30;91.90;;;;;;6032445;23;20209;-82
2022/04/09 12:22:57;;;;;;;4.55;2.80;;;13.20;92.80;;;;;;6034480;23;20641;-82
2022/04/09 12:25:35;;;;;;;3.42;2.20;;;12.80;91.60;;;;;;6034135;23;20185;-82
2022/04/09 12:28:03;;;;;;;4.35;2.75;;;12.00;92.70;;;;;;6034195;23;20328;-82
2022/04/09 12:30:41;;;;;;;6.63;2.55;;;11.60;94.70;;;;;;6019469;23;20323;-82
2022/04/09 12:33:10;;;;;;;3.92;2.30;;;12.10;93.50;;;;;;6016899;23;20189;-82
2022/04/09 12:35:37;;;;;;;2.30;1.98;;;12.40;92.70;;;;;;6029863;23;20185;-82
2022/04/09 12:38:05;;;;;;;4.35;2.28;;;13.20;93.20;;;;;;6034353;23;20221;-82
2022/04/09 12:40:34;;;;;;;3.80;1.88;;;13.30;92.10;;;;;;6034104;23;20665;-82
2022/04/09 12:43:01;;;;;;;3.78;2.35;;;13.40;89.00;;;;;;6033816;23;20197;-82
2022/04/09 12:45:29;;;;;;;3.85;2.08;;;13.70;90.10;;;;;;6033214;23;20669;-82
2022/04/09 12:47:58;;;;;;;3.40;2.33;;;13.80;91.50;;;;;;6028175;23;20252;-82
2022/04/09 12:50:27;;;;;;;4.68;2.38;;;14.00;90.30;;;;;;6033805;23;20732;-82
2022/04/09 12:52:55;;;;;;;3.28;2.20;;;13.80;88.20;;;;;;6034526;23;20269;-82
2022/04/09 12:55:25;;;;;;;5.32;2.35;;;13.20;89.00;;;;;;6033655;23;20186;-82
2022/04/09 12:57:54;;;;;;;3.85;2.67;;;12.80;91.00;;;;;;6033814;23;20196;-81
2022/04/09 13:00:23;;;;;;;3.05;2.20;;;12.00;90.40;;;;;;6032993;23;20284;-81